Time;durP1;ratioP1;P1;durP2;ratioP2;P2;SDS_P1;SDS_P2;PMS_P1;PMS_P2;Temp;Humidity;BMP_temperature;BMP_pressure;BME280_temperature;BME280_humidity;BME280_pressure;Samples;Min_cycle;Max_cycle;Signal;HPM_P1;HPM_P2
2023/03/19 00:02:09;;;;;;;28.87;19.77;;;7.90;83.00;;;;;;5072133;28;20232;-67
2023/03/19 00:04:55;;;;;;;41.33;24.17;;;8.00;83.00;;;;;;5056519;28;20204;-66
2023/03/19 00:07:29;;;;;;;31.07;19.33;;;8.10;82.80;;;;;;5051727;28;20209;-67
2023/03/19 00:10:02;;;;;;;29.73;20.17;;;8.00;83.70;;;;;;5051864;28;20292;-67
2023/03/19 00:12:41;;;;;;;31.77;19.70;;;8.00;83.10;;;;;;5051577;28;20642;-67
2023/03/19 00:15:22;;;;;;;31.37;19.43;;;8.00;83.20;;;;;;5052009;28;20306;-67
2023/03/19 00:18:03;;;;;;;28.00;19.17;;;8.00;83.20;;;;;;5051366;28;20283;-67
2023/03/19 00:20:38;;;;;;;31.83;20.20;;;8.00;83.10;;;;;;5062542;28;20668;-67
2023/03/19 00:23:11;;;;;;;28.37;18.90;;;7.90;83.30;;;;;;5071671;28;20203;-67
2023/03/19 00:25:44;;;;;;;29.47;18.97;;;8.00;82.60;;;;;;5071465;28;20277;-69
2023/03/19 00:28:17;;;;;;;35.90;21.13;;;7.80;85.30;;;;;;5071521;28;20196;-67
2023/03/19 00:30:51;;;;;;;35.80;20.97;;;7.80;86.30;;;;;;5069895;28;20216;-67
2023/03/19 00:33:24;;;;;;;32.60;20.33;;;7.80;86.10;;;;;;5069854;28;20209;-67
2023/03/19 00:35:57;;;;;;;35.90;21.13;;;7.80;86.30;;;;;;5070848;28;20282;-67
2023/03/19 00:38:29;;;;;;;31.10;19.17;;;7.70;87.30;;;;;;5071196;28;21009;-67
2023/03/19 00:41:06;;;;;;;29.30;18.70;;;7.70;87.50;;;;;;5071114;28;20720;-67
2023/03/19 00:43:35;;;;;;;29.90;18.70;;;7.70;87.60;;;;;;5071194;28;20418;-67
2023/03/19 00:46:07;;;;;;;32.83;20.73;;;7.70;88.40;;;;;;5069672;28;20218;-67
2023/03/19 00:48:39;;;;;;;32.23;19.87;;;7.70;88.00;;;;;;5071015;28;20273;-67
2023/03/19 00:51:11;;;;;;;31.73;20.57;;;7.70;88.40;;;;;;5070610;28;20260;-67
2023/03/19 00:53:46;;;;;;;29.93;20.30;;;7.70;87.60;;;;;;5071188;28;20186;-67
2023/03/19 00:56:18;;;;;;;30.83;19.67;;;7.60;89.00;;;;;;5069403;28;20223;-67
2023/03/19 00:58:48;;;;;;;30.97;20.40;;;7.60;89.80;;;;;;5070947;28;20198;-67
2023/03/19 01:01:18;;;;;;;34.43;19.97;;;7.70;89.20;;;;;;5069956;28;20241;-67
2023/03/19 01:03:48;;;;;;;31.60;20.03;;;7.70;90.00;;;;;;5070860;28;20560;-66
2023/03/19 01:06:21;;;;;;;30.30;19.93;;;7.70;90.60;;;;;;5070540;28;20289;-67
2023/03/19 01:08:52;;;;;;;25.67;19.23;;;7.60;90.60;;;;;;5070933;28;20660;-66
2023/03/19 01:11:25;;;;;;;31.83;19.50;;;7.70;90.90;;;;;;5070781;28;20230;-67
2023/03/19 01:13:57;;;;;;;32.47;20.13;;;7.70;91.20;;;;;;5069619;28;20236;-65
2023/03/19 01:16:34;;;;;;;29.57;19.50;;;7.50;91.80;;;;;;5069427;28;20706;-65
2023/03/19 01:19:11;;;;;;;30.67;19.50;;;7.50;91.90;;;;;;5070841;28;20194;-65
2023/03/19 01:21:44;;;;;;;34.50;21.90;;;7.60;91.70;;;;;;5069304;28;20545;-65
2023/03/19 01:24:17;;;;;;;36.53;24.63;;;7.60;91.80;;;;;;5069371;28;20252;-66
2023/03/19 01:26:56;;;;;;;33.00;20.00;;;7.70;91.10;;;;;;5069331;28;20224;-65
2023/03/19 01:29:38;;;;;;;26.03;19.43;;;7.70;91.70;;;;;;5070668;28;20194;-65
2023/03/19 01:32:18;;;;;;;30.13;20.27;;;7.70;91.60;;;;;;5069508;28;20233;-65
2023/03/19 01:35:25;;;;;;;29.80;18.57;;;7.80;91.20;;;;;;5057351;28;20632;-65
2023/03/19 01:38:00;;;;;;;28.70;20.17;;;7.70;93.00;;;;;;5068237;28;20221;-65
2023/03/19 01:40:32;;;;;;;28.07;20.63;;;7.70;92.90;;;;;;5069222;28;20209;-65
2023/03/19 01:43:25;;;;;;;30.60;20.43;;;7.70;92.60;;;;;;5069191;28;20292;-65
2023/03/19 01:46:37;;;;;;;27.33;19.53;;;7.90;91.90;;;;;;5070316;28;20281;-65
2023/03/19 01:49:46;;;;;;;31.90;21.10;;;8.00;91.30;;;;;;5068905;28;20625;-65
2023/03/19 01:52:32;;;;;;;33.23;21.60;;;7.90;90.80;;;;;;5070294;28;20694;-66
2023/03/19 01:55:23;;;;;;;34.00;21.63;;;8.00;91.60;;;;;;5068958;28;20205;-65
2023/03/19 01:58:27;;;;;;;38.67;24.30;;;8.10;91.00;;;;;;5047672;28;20238;-65
2023/03/19 02:01:24;;;;;;;39.43;25.53;;;8.10;90.20;;;;;;5030975;28;20245;-66
2023/03/19 02:04:02;;;;;;;49.93;32.13;;;8.20;89.10;;;;;;5031037;28;20675;-65
2023/03/19 02:06:37;;;;;;;39.67;26.33;;;8.20;88.30;;;;;;5030871;28;20297;-65
2023/03/19 02:09:13;;;;;;;43.50;29.20;;;8.30;88.10;;;;;;5047905;28;20933;-65
2023/03/19 02:11:53;;;;;;;45.17;28.70;;;8.30;88.40;;;;;;5031596;28;20197;-65
2023/03/19 02:14:36;;;;;;;38.77;24.47;;;8.30;89.60;;;;;;5050398;28;20218;-65
2023/03/19 02:17:08;;;;;;;37.57;22.60;;;8.30;89.10;;;;;;5034732;28;20225;-65
2023/03/19 02:19:50;;;;;;;34.43;22.83;;;8.30;89.30;;;;;;5047953;28;20210;-66
2023/03/19 02:22:31;;;;;;;35.63;22.57;;;8.40;87.90;;;;;;5034736;28;20573;-66
2023/03/19 02:25:09;;;;;;;38.23;23.23;;;8.40;87.80;;;;;;5034849;28;20202;-66
2023/03/19 02:27:46;;;;;;;34.00;22.10;;;8.40;90.30;;;;;;5034581;28;20206;-66
2023/03/19 02:30:24;;;;;;;31.03;21.80;;;8.30;90.10;;;;;;5034532;28;20198;-66
2023/03/19 02:32:53;;;;;;;37.37;22.87;;;8.30;90.00;;;;;;5034378;28;20209;-65
2023/03/19 02:35:22;;;;;;;36.30;22.57;;;8.40;90.20;;;;;;5060593;28;20736;-65
2023/03/19 02:37:51;;;;;;;33.83;23.73;;;8.50;89.60;;;;;;5071909;28;20647;-66
2023/03/19 02:40:24;;;;;;;29.23;21.53;;;8.60;88.80;;;;;;5073568;28;20204;-66
2023/03/19 02:42:56;;;;;;;34.90;22.60;;;8.60;89.00;;;;;;5072218;28;20233;-66
2023/03/19 02:45:30;;;;;;;35.43;22.50;;;8.60;90.40;;;;;;5073523;28;20725;-66
2023/03/19 02:47:59;;;;;;;37.00;22.93;;;8.60;89.50;;;;;;5072035;28;20209;-66
2023/03/19 02:50:29;;;;;;;38.93;22.77;;;8.70;89.00;;;;;;5071944;28;20213;-67
2023/03/19 02:52:58;;;;;;;30.37;21.60;;;8.70;89.30;;;;;;5073350;28;20194;-66
2023/03/19 02:55:28;;;;;;;37.77;23.13;;;8.70;89.20;;;;;;5073427;28;20240;-66
2023/03/19 02:57:59;;;;;;;40.57;22.80;;;8.80;89.30;;;;;;5073104;28;20226;-66
2023/03/19 03:00:30;;;;;;;49.43;26.47;;;8.80;90.00;;;;;;5073065;28;20226;-67
2023/03/19 03:03:02;;;;;;;46.13;26.47;;;8.80;86.60;;;;;;5071854;28;20212;-66
2023/03/19 03:05:32;;;;;;;39.67;24.20;;;8.90;87.20;;;;;;5073266;28;20552;-66
2023/03/19 03:08:04;;;;;;;38.13;22.87;;;8.80;88.70;;;;;;5073159;28;20190;-66
2023/03/19 03:10:33;;;;;;;38.70;24.63;;;8.80;88.80;;;;;;5071767;28;20236;-66
2023/03/19 03:13:08;;;;;;;38.90;24.10;;;8.80;89.20;;;;;;5071711;28;20229;-65
2023/03/19 03:15:37;;;;;;;40.90;23.20;;;8.80;88.30;;;;;;5073135;28;20276;-65
2023/03/19 03:18:07;;;;;;;35.20;22.80;;;8.90;90.10;;;;;;5072777;28;20331;-65
2023/03/19 03:20:36;;;;;;;36.03;23.93;;;8.90;89.80;;;;;;5072628;28;20202;-66
2023/03/19 03:23:05;;;;;;;37.30;22.20;;;8.90;90.50;;;;;;5072575;28;20205;-65
2023/03/19 03:25:36;;;;;;;31.57;21.53;;;8.90;89.30;;;;;;5072275;28;20264;-67
2023/03/19 03:28:07;;;;;;;30.23;21.13;;;8.90;88.60;;;;;;5072745;28;20202;-66
2023/03/19 03:30:37;;;;;;;30.00;20.27;;;8.90;87.40;;;;;;5072741;28;20558;-66
2023/03/19 03:33:06;;;;;;;30.37;19.60;;;9.00;86.60;;;;;;5072684;28;20212;-65
2023/03/19 03:35:35;;;;;;;32.27;21.93;;;9.00;85.40;;;;;;5072588;28;20222;-66
2023/03/19 03:38:05;;;;;;;30.50;19.87;;;8.90;87.70;;;;;;5070887;28;20226;-65
2023/03/19 03:40:37;;;;;;;32.43;21.07;;;8.90;87.50;;;;;;5072528;28;20190;-65
2023/03/19 03:43:07;;;;;;;37.30;22.93;;;8.90;88.30;;;;;;5072316;28;20198;-65
2023/03/19 03:45:37;;;;;;;31.67;20.63;;;8.90;88.60;;;;;;5071047;28;20202;-65
2023/03/19 03:48:06;;;;;;;32.20;22.17;;;8.90;89.00;;;;;;5072104;28;20194;-66
2023/03/19 03:50:35;;;;;;;38.20;22.67;;;8.80;89.00;;;;;;5070963;28;20663;-66
2023/03/19 03:53:08;;;;;;;31.80;20.87;;;8.80;90.40;;;;;;5070621;28;20202;-66
2023/03/19 03:55:37;;;;;;;31.67;22.17;;;8.80;90.30;;;;;;5071037;28;20209;-67
2023/03/19 03:58:11;;;;;;;35.53;21.17;;;8.90;91.10;;;;;;5070448;28;20272;-65
2023/03/19 04:00:41;;;;;;;31.87;20.20;;;9.00;90.80;;;;;;5070506;28;20229;-66
2023/03/19 04:03:13;;;;;;;33.20;20.87;;;9.00;90.20;;;;;;5071652;28;20197;-66
2023/03/19 04:05:43;;;;;;;32.10;19.93;;;9.00;89.60;;;;;;5071332;28;20209;-67
2023/03/19 04:08:12;;;;;;;33.70;20.17;;;8.90;90.00;;;;;;5071356;28;20210;-67
2023/03/19 04:10:42;;;;;;;32.23;20.43;;;9.00;90.20;;;;;;5071524;28;20203;-67
2023/03/19 04:13:17;;;;;;;29.73;19.90;;;9.00;89.70;;;;;;5072521;28;20698;-66
2023/03/19 04:15:46;;;;;;;33.80;19.67;;;9.00;89.50;;;;;;5071299;28;20202;-66
2023/03/19 04:18:16;;;;;;;28.67;19.60;;;8.90;90.90;;;;;;5071264;28;20217;-66
2023/03/19 04:20:45;;;;;;;30.97;20.40;;;8.80;91.10;;;;;;5072609;28;20671;-65
2023/03/19 04:23:14;;;;;;;34.30;21.20;;;8.70;91.30;;;;;;5071124;28;20292;-67
2023/03/19 04:25:43;;;;;;;32.73;19.13;;;8.80;90.50;;;;;;5072420;28;20214;-66
2023/03/19 04:28:16;;;;;;;30.50;19.97;;;8.90;90.30;;;;;;5072468;28;20667;-66
2023/03/19 04:30:47;;;;;;;34.20;21.53;;;8.90;91.70;;;;;;5071186;28;20693;-66
2023/03/19 04:33:21;;;;;;;31.83;21.63;;;8.90;91.30;;;;;;5070937;28;20206;-65
2023/03/19 04:35:51;;;;;;;38.33;22.63;;;8.80;90.80;;;;;;5070819;28;20209;-67
2023/03/19 04:38:26;;;;;;;33.87;22.60;;;8.90;90.90;;;;;;5072107;28;20250;-67
2023/03/19 04:40:56;;;;;;;31.93;20.63;;;8.90;91.00;;;;;;5070736;28;20228;-67
2023/03/19 04:43:27;;;;;;;37.60;23.27;;;8.80;91.60;;;;;;5070743;28;20220;-67
2023/03/19 04:45:56;;;;;;;32.27;19.80;;;8.80;91.70;;;;;;5070735;28;20593;-66
2023/03/19 04:48:27;;;;;;;30.63;19.70;;;8.80;92.20;;;;;;5070904;28;20211;-66
2023/03/19 04:50:57;;;;;;;34.10;21.17;;;8.70;92.80;;;;;;5070723;28;20217;-66
2023/03/19 04:53:26;;;;;;;34.50;20.97;;;8.70;92.80;;;;;;5070561;28;20229;-66
2023/03/19 04:55:55;;;;;;;32.37;21.43;;;8.70;93.10;;;;;;5070673;28;20198;-68
2023/03/19 04:58:26;;;;;;;34.93;23.80;;;8.70;93.60;;;;;;5070545;28;20214;-67
2023/03/19 05:01:00;;;;;;;41.97;24.53;;;8.60;93.10;;;;;;5070352;28;20257;-66
2023/03/19 05:03:49;;;;;;;41.87;25.37;;;8.50;94.10;;;;;;5071671;28;20203;-66
2023/03/19 05:06:20;;;;;;;36.17;23.83;;;8.40;94.20;;;;;;5070513;28;20301;-66
2023/03/19 05:08:49;;;;;;;34.77;23.33;;;8.30;95.20;;;;;;5070562;28;20206;-67
2023/03/19 05:11:20;;;;;;;34.73;23.20;;;8.30;95.70;;;;;;5070543;28;20201;-66
2023/03/19 05:14:03;;;;;;;36.73;21.13;;;8.30;95.60;;;;;;5070377;28;20205;-66
2023/03/19 05:17:00;;;;;;;33.83;21.67;;;8.40;95.10;;;;;;5070472;28;20209;-66
2023/03/19 05:19:39;;;;;;;31.33;21.17;;;8.50;94.60;;;;;;5070177;28;20327;-67
2023/03/19 05:22:10;;;;;;;28.43;19.27;;;8.60;94.50;;;;;;5070155;28;20205;-68
2023/03/19 05:24:39;;;;;;;32.93;23.50;;;8.60;93.90;;;;;;5070113;28;20289;-67
2023/03/19 05:27:09;;;;;;;28.03;18.43;;;8.40;95.00;;;;;;5070144;28;20205;-66
2023/03/19 05:29:47;;;;;;;36.17;17.90;;;8.30;96.20;;;;;;5070261;28;20211;-68
2023/03/19 05:32:28;;;;;;;33.47;19.90;;;8.40;96.00;;;;;;5066665;28;20205;-66
2023/03/19 05:35:00;;;;;;;30.93;19.50;;;8.60;96.00;;;;;;5055211;28;20203;-66
2023/03/19 05:37:29;;;;;;;33.97;19.97;;;8.60;95.90;;;;;;5061361;28;20205;-68
2023/03/19 05:39:59;;;;;;;29.23;18.77;;;8.60;95.30;;;;;;5069895;28;20222;-67
2023/03/19 05:42:28;;;;;;;27.80;17.67;;;8.70;95.30;;;;;;5060312;28;20623;-68
2023/03/19 05:45:01;;;;;;;25.70;16.93;;;8.60;95.60;;;;;;5050096;28;20229;-66
2023/03/19 05:47:39;;;;;;;22.53;15.90;;;8.60;96.20;;;;;;5051938;28;20205;-67
2023/03/19 05:50:10;;;;;;;24.37;16.03;;;8.60;96.00;;;;;;5054184;28;20204;-67
2023/03/19 05:52:42;;;;;;;26.80;15.80;;;8.70;96.20;;;;;;5053991;28;20205;-68
2023/03/19 05:55:11;;;;;;;23.37;15.30;;;8.70;96.20;;;;;;5053996;28;20213;-68
2023/03/19 05:57:46;;;;;;;25.93;17.03;;;8.80;96.30;;;;;;5072717;28;20209;-67
2023/03/19 06:00:27;;;;;;;24.27;17.13;;;8.90;96.50;;;;;;5073612;28;20331;-68
2023/03/19 06:02:55;;;;;;;19.80;15.83;;;8.90;96.50;;;;;;5074107;28;20198;-67
2023/03/19 06:05:50;;;;;;;25.00;17.23;;;8.90;97.80;;;;;;5075111;28;20202;-66
2023/03/19 06:08:33;;;;;;;27.10;18.60;;;8.90;98.30;;;;;;5073329;28;20227;-67
2023/03/19 06:11:13;;;;;;;40.40;23.10;;;9.00;97.20;;;;;;5068515;28;20194;-67
2023/03/19 06:13:49;;;;;;;34.07;22.67;;;8.90;95.20;;;;;;5054107;28;20195;-68
2023/03/19 06:16:22;;;;;;;28.70;20.53;;;8.80;95.20;;;;;;5070125;28;20210;-67
2023/03/19 06:18:59;;;;;;;32.00;22.20;;;8.80;95.90;;;;;;5053585;28;20206;-67
2023/03/19 06:21:31;;;;;;;35.30;22.67;;;8.80;96.00;;;;;;5054751;28;20245;-66
2023/03/19 06:24:06;;;;;;;35.83;23.80;;;8.90;96.40;;;;;;5053381;28;20202;-66
2023/03/19 06:26:38;;;;;;;32.53;21.90;;;9.00;94.10;;;;;;5053429;28;20242;-67
2023/03/19 06:29:19;;;;;;;27.63;20.10;;;9.00;94.30;;;;;;5053463;28;20210;-68
2023/03/19 06:32:06;;;;;;;30.80;20.70;;;8.90;94.80;;;;;;5053133;28;20565;-67
2023/03/19 06:34:45;;;;;;;33.47;20.97;;;9.10;94.70;;;;;;5053073;28;20204;-66
2023/03/19 06:37:22;;;;;;;33.50;21.70;;;9.40;94.80;;;;;;5053232;28;20212;-66
2023/03/19 06:39:57;;;;;;;29.30;21.07;;;9.50;95.60;;;;;;5054330;28;20207;-67
2023/03/19 06:42:25;;;;;;;35.20;20.73;;;9.70;94.70;;;;;;5054463;28;20197;-67
2023/03/19 06:44:57;;;;;;;32.70;22.47;;;9.70;95.10;;;;;;5053197;28;20366;-66
2023/03/19 06:47:30;;;;;;;32.93;22.37;;;9.70;94.90;;;;;;5054283;28;20211;-67
2023/03/19 06:50:02;;;;;;;35.27;22.63;;;9.90;93.30;;;;;;5054249;28;20200;-67
2023/03/19 06:52:32;;;;;;;87.40;26.87;;;10.00;93.10;;;;;;5054336;28;20241;-66
2023/03/19 06:55:01;;;;;;;50.70;24.30;;;10.10;92.00;;;;;;5054244;28;20196;-68
2023/03/19 06:57:30;;;;;;;37.53;22.93;;;10.20;88.30;;;;;;5054108;28;20683;-66
2023/03/19 07:00:10;;;;;;;36.17;21.90;;;10.30;84.90;;;;;;5052661;28;20725;-66
2023/03/19 07:02:44;;;;;;;42.33;21.70;;;10.40;82.70;;;;;;5053923;28;20209;-67
2023/03/19 07:05:13;;;;;;;33.67;21.73;;;10.50;80.90;;;;;;5054282;28;20756;-68
2023/03/19 07:07:42;;;;;;;34.07;22.40;;;10.50;81.50;;;;;;5053860;28;20246;-69
2023/03/19 07:10:11;;;;;;;35.77;23.50;;;10.50;81.10;;;;;;5053925;28;20663;-68
2023/03/19 07:12:52;;;;;;;34.40;22.47;;;10.50;81.40;;;;;;5053793;28;20200;-68
2023/03/19 07:15:28;;;;;;;33.97;23.53;;;10.60;81.60;;;;;;5053794;28;20273;-67
2023/03/19 07:18:05;;;;;;;45.63;27.97;;;10.60;79.80;;;;;;5053833;28;20199;-67
2023/03/19 07:20:34;;;;;;;43.60;30.50;;;10.60;80.50;;;;;;5053540;28;20221;-66
2023/03/19 07:23:03;;;;;;;44.60;29.90;;;10.60;81.30;;;;;;5053823;28;20615;-66
2023/03/19 07:25:31;;;;;;;45.93;30.47;;;10.70;80.30;;;;;;5053778;28;20258;-67
2023/03/19 07:28:00;;;;;;;66.90;42.30;;;10.80;80.10;;;;;;5053645;28;20212;-66
2023/03/19 07:30:28;;;;;;;93.60;52.47;;;10.80;79.00;;;;;;5053766;28;20722;-65
2023/03/19 07:32:57;;;;;;;96.90;55.23;;;10.80;78.60;;;;;;5053365;28;20211;-66
2023/03/19 07:35:27;;;;;;;89.80;53.00;;;10.90;78.10;;;;;;5053538;28;20226;-67
2023/03/19 07:37:56;;;;;;;86.57;53.57;;;11.00;77.90;;;;;;5053232;28;20217;-66
2023/03/19 07:40:25;;;;;;;88.37;52.40;;;11.20;77.50;;;;;;5053458;28;20327;-66
2023/03/19 07:42:54;;;;;;;79.40;49.63;;;11.30;76.60;;;;;;5053395;28;20288;-65
2023/03/19 07:45:23;;;;;;;69.40;41.00;;;11.40;77.20;;;;;;5052097;28;20204;-66
2023/03/19 07:47:52;;;;;;;59.00;39.13;;;11.40;76.30;;;;;;5053235;28;20295;-65
2023/03/19 07:50:23;;;;;;;63.97;38.87;;;11.50;76.30;;;;;;5053251;28;20225;-67
2023/03/19 07:52:53;;;;;;;52.17;34.53;;;11.60;76.30;;;;;;5053143;28;20258;-67
2023/03/19 07:55:22;;;;;;;51.63;33.17;;;11.70;75.80;;;;;;5053100;28;20219;-67
2023/03/19 07:57:58;;;;;;;46.33;29.97;;;12.10;74.60;;;;;;5053296;28;20288;-67
2023/03/19 08:00:30;;;;;;;45.03;29.43;;;12.40;73.00;;;;;;5052846;28;20344;-68
2023/03/19 08:03:00;;;;;;;43.93;30.03;;;12.80;70.60;;;;;;5052923;28;20209;-65
2023/03/19 08:05:28;;;;;;;48.90;28.57;;;13.20;67.70;;;;;;5052953;28;20227;-66
2023/03/19 08:07:58;;;;;;;41.90;27.47;;;13.50;66.10;;;;;;5052763;28;20251;-65
2023/03/19 08:10:27;;;;;;;43.60;28.73;;;14.10;63.40;;;;;;5052517;28;20205;-66
2023/03/19 08:12:56;;;;;;;130.50;70.93;;;14.50;61.40;;;;;;5052801;28;20276;-65
2023/03/19 08:15:26;;;;;;;45.70;28.77;;;14.60;62.90;;;;;;5052560;28;20626;-66
2023/03/19 08:17:59;;;;;;;44.10;28.37;;;15.00;59.30;;;;;;5052755;28;20253;-65
2023/03/19 08:20:28;;;;;;;40.40;27.57;;;15.40;58.10;;;;;;5052394;28;20212;-66
2023/03/19 08:22:58;;;;;;;57.90;35.37;;;15.70;57.00;;;;;;5052501;28;20236;-69
2023/03/19 08:25:31;;;;;;;47.47;26.03;;;16.10;57.40;;;;;;5052573;28;20208;-65
2023/03/19 08:28:00;;;;;;;39.13;24.97;;;16.20;55.30;;;;;;5052418;28;20293;-65
2023/03/19 08:30:29;;;;;;;35.37;22.87;;;16.30;54.60;;;;;;5052519;28;20198;-65
2023/03/19 08:32:58;;;;;;;32.27;21.90;;;16.40;54.50;;;;;;5052226;28;20657;-65
2023/03/19 08:35:27;;;;;;;29.03;19.63;;;16.40;53.80;;;;;;5052396;28;20277;-65
2023/03/19 08:37:56;;;;;;;24.70;16.60;;;16.50;53.60;;;;;;5051912;28;20196;-67
2023/03/19 08:40:26;;;;;;;26.97;18.10;;;16.60;53.80;;;;;;5052167;28;20224;-67
2023/03/19 08:42:56;;;;;;;28.80;18.07;;;16.70;53.60;;;;;;5052011;28;20655;-67
2023/03/19 08:45:25;;;;;;;28.47;18.30;;;16.70;53.20;;;;;;5052250;28;20569;-65
2023/03/19 08:47:53;;;;;;;29.07;17.63;;;16.80;53.40;;;;;;5052011;28;20210;-65
2023/03/19 08:50:22;;;;;;;26.27;18.27;;;16.80;53.40;;;;;;5052079;28;20227;-65
2023/03/19 08:52:51;;;;;;;31.30;20.50;;;16.80;53.80;;;;;;5052112;28;20672;-65
2023/03/19 08:55:20;;;;;;;25.70;17.97;;;16.80;53.50;;;;;;5051681;28;20192;-65
2023/03/19 08:57:50;;;;;;;26.20;17.77;;;16.80;53.10;;;;;;5051950;28;20253;-65
2023/03/19 09:00:20;;;;;;;29.33;17.37;;;16.80;53.10;;;;;;5051762;28;20530;-65
2023/03/19 09:02:49;;;;;;;25.13;17.10;;;16.80;53.20;;;;;;5051688;28;20194;-65
2023/03/19 09:05:21;;;;;;;24.47;17.17;;;16.90;53.30;;;;;;5051861;28;20224;-65
2023/03/19 09:07:52;;;;;;;26.73;17.10;;;16.90;53.50;;;;;;5051743;28;20530;-66
2023/03/19 09:10:21;;;;;;;25.93;15.90;;;17.00;53.60;;;;;;5051981;28;20610;-67
2023/03/19 09:12:51;;;;;;;26.97;17.97;;;17.20;53.30;;;;;;5051644;28;20999;-65
2023/03/19 09:15:20;;;;;;;26.70;17.63;;;17.30;53.20;;;;;;5051643;28;20199;-65
2023/03/19 09:17:51;;;;;;;28.23;18.20;;;17.40;53.70;;;;;;5051742;28;20563;-65
2023/03/19 09:20:20;;;;;;;20.77;12.83;;;17.50;53.00;;;;;;5051636;28;20628;-66
2023/03/19 09:22:49;;;;;;;40.70;24.17;;;17.50;53.40;;;;;;5050758;28;20196;-65
2023/03/19 09:25:18;;;;;;;18.20;12.50;;;17.60;54.10;;;;;;5051465;28;20200;-66
2023/03/19 09:27:47;;;;;;;18.07;12.67;;;17.70;53.40;;;;;;5051440;28;20268;-66
2023/03/19 09:30:17;;;;;;;18.30;12.60;;;17.20;54.10;;;;;;5051470;28;20294;-65
2023/03/19 09:32:46;;;;;;;19.87;14.80;;;17.60;54.10;;;;;;5051144;28;20204;-65
2023/03/19 09:35:15;;;;;;;32.60;22.27;;;18.00;53.70;;;;;;5051330;28;20196;-66
2023/03/19 09:37:44;;;;;;;32.33;20.77;;;18.20;53.30;;;;;;5051342;28;20207;-65
2023/03/19 09:40:21;;;;;;;18.70;13.90;;;18.50;53.10;;;;;;5051189;28;20649;-66
2023/03/19 09:43:00;;;;;;;16.63;12.93;;;18.40;52.40;;;;;;5051292;28;20223;-66
2023/03/19 09:45:31;;;;;;;20.97;13.53;;;18.60;52.90;;;;;;5051362;28;20200;-66
2023/03/19 09:48:06;;;;;;;18.80;13.83;;;18.80;52.20;;;;;;5051262;28;20193;-66
2023/03/19 09:50:36;;;;;;;19.67;14.37;;;19.40;51.20;;;;;;5051362;28;20197;-65
2023/03/19 09:53:12;;;;;;;25.50;17.90;;;20.10;50.50;;;;;;5050013;28;20684;-65
2023/03/19 09:55:45;;;;;;;24.03;14.77;;;21.30;49.20;;;;;;5052284;28;20208;-67
2023/03/19 09:58:18;;;;;;;18.13;13.63;;;22.20;47.30;;;;;;5058822;28;20646;-66
2023/03/19 10:00:51;;;;;;;16.73;11.77;;;22.50;46.80;;;;;;5071530;28;20231;-68
2023/03/19 10:03:39;;;;;;;17.50;12.00;;;22.50;45.90;;;;;;5071626;28;20255;-67
2023/03/19 10:06:26;;;;;;;17.77;13.73;;;22.00;45.90;;;;;;5071035;28;20280;-68
2023/03/19 10:09:04;;;;;;;14.63;10.80;;;22.80;45.80;;;;;;5071648;28;20588;-69
2023/03/19 10:11:49;;;;;;;20.90;13.53;;;22.50;44.60;;;;;;5071430;28;20605;-68
2023/03/19 10:14:38;;;;;;;16.60;11.70;;;23.00;45.00;;;;;;5071556;28;20253;-69
2023/03/19 10:17:14;;;;;;;17.40;12.07;;;22.50;44.40;;;;;;5071481;28;20202;-70
2023/03/19 10:19:46;;;;;;;15.37;10.07;;;22.50;45.10;;;;;;5067267;28;20206;-69
2023/03/19 10:22:18;;;;;;;29.87;19.13;;;22.90;44.60;;;;;;5069179;28;20193;-67
2023/03/19 10:24:50;;;;;;;20.50;13.73;;;23.70;44.60;;;;;;5055831;28;20227;-67
2023/03/19 10:27:21;;;;;;;18.10;12.33;;;24.20;43.50;;;;;;5066447;28;20282;-70
2023/03/19 10:29:50;;;;;;;13.57;10.40;;;25.00;42.80;;;;;;5071409;28;20199;-67
2023/03/19 10:32:24;;;;;;;19.67;13.80;;;25.30;40.90;;;;;;5071459;28;20225;-69
2023/03/19 10:34:54;;;;;;;16.37;12.43;;;25.90;41.10;;;;;;5074644;28;20209;-69
2023/03/19 10:37:25;;;;;;;24.83;16.50;;;26.80;40.30;;;;;;5075225;28;20605;-69
2023/03/19 10:39:56;;;;;;;25.90;19.57;;;28.00;39.20;;;;;;5075066;28;20197;-69
2023/03/19 10:42:57;;;;;;;22.03;14.47;;;28.70;38.40;;;;;;5075057;28;20200;-68
2023/03/19 10:45:28;;;;;;;10.83;8.73;;;28.20;38.30;;;;;;5013095;28;20282;-68
2023/03/19 10:48:00;;;;;;;11.83;8.90;;;26.80;38.00;;;;;;5012996;28;20199;-71
2023/03/19 10:50:32;;;;;;;14.43;9.17;;;25.40;39.60;;;;;;5012564;28;20262;-70
2023/03/19 10:53:07;;;;;;;18.37;12.10;;;24.50;41.50;;;;;;5012870;28;20314;-68
2023/03/19 10:55:35;;;;;;;17.27;10.17;;;24.00;42.70;;;;;;5008001;28;20298;-67
2023/03/19 10:58:06;;;;;;;17.43;10.40;;;24.10;43.20;;;;;;5002763;28;20698;-67
2023/03/19 11:00:35;;;;;;;12.37;9.53;;;24.90;41.20;;;;;;4993058;28;20234;-69
2023/03/19 11:03:26;;;;;;;12.47;9.50;;;25.10;40.90;;;;;;5006502;28;20676;-69
2023/03/19 11:06:04;;;;;;;19.43;14.87;;;26.20;39.60;;;;;;4992741;28;20199;-68
2023/03/19 11:08:36;;;;;;;14.27;9.63;;;26.40;40.20;;;;;;4993120;28;20242;-69
2023/03/19 11:11:05;;;;;;;15.60;10.77;;;26.20;39.80;;;;;;4993065;28;20625;-68
2023/03/19 11:13:35;;;;;;;18.77;11.33;;;26.40;39.60;;;;;;4992904;28;20229;-69
2023/03/19 11:16:05;;;;;;;17.10;12.67;;;26.10;39.30;;;;;;4992752;28;20239;-66
2023/03/19 11:18:40;;;;;;;24.60;14.87;;;26.00;40.10;;;;;;4992441;28;20235;-67
2023/03/19 11:21:21;;;;;;;17.40;12.13;;;27.20;39.40;;;;;;5002585;28;20735;-68
2023/03/19 11:23:53;;;;;;;22.30;12.93;;;27.90;38.30;;;;;;5054515;28;20204;-67
2023/03/19 11:26:23;;;;;;;13.83;10.73;;;27.60;37.40;;;;;;5060380;28;20207;-66
2023/03/19 11:28:53;;;;;;;20.33;15.20;;;26.60;38.20;;;;;;5059111;28;20208;-67
2023/03/19 11:31:32;;;;;;;22.73;16.63;;;25.40;38.70;;;;;;5060499;28;20312;-65
2023/03/19 11:34:16;;;;;;;24.07;17.57;;;23.90;41.50;;;;;;5057962;28;20237;-66
2023/03/19 11:36:51;;;;;;;31.60;20.87;;;23.40;42.00;;;;;;5071652;28;20197;-66
2023/03/19 11:39:29;;;;;;;26.90;20.20;;;22.60;43.50;;;;;;5065035;28;20304;-66
2023/03/19 11:42:11;;;;;;;34.30;23.80;;;21.80;43.60;;;;;;5070150;28;20246;-66
2023/03/19 11:44:50;;;;;;;26.20;17.57;;;21.00;45.60;;;;;;5073574;28;20606;-66
2023/03/19 11:47:29;;;;;;;30.33;20.57;;;20.30;46.10;;;;;;5073258;28;20258;-64
2023/03/19 11:50:17;;;;;;;32.20;22.00;;;20.00;47.30;;;;;;5073512;28;20201;-66
2023/03/19 11:53:01;;;;;;;33.50;22.97;;;20.20;47.30;;;;;;5073252;28;20588;-65
2023/03/19 11:55:36;;;;;;;22.30;17.77;;;20.20;47.60;;;;;;5073156;28;20612;-66
2023/03/19 11:58:36;;;;;;;26.97;19.57;;;20.40;47.20;;;;;;5072514;28;20253;-65
2023/03/19 12:01:14;;;;;;;33.87;22.23;;;20.80;47.00;;;;;;5071957;28;20610;-67
2023/03/19 12:04:06;;;;;;;36.67;24.40;;;21.50;46.50;;;;;;5071751;28;20666;-67
2023/03/19 12:06:46;;;;;;;31.10;21.43;;;22.00;45.00;;;;;;5073621;28;20637;-66
2023/03/19 12:09:22;;;;;;;22.63;17.10;;;21.60;43.60;;;;;;5073174;28;20209;-66
2023/03/19 12:11:58;;;;;;;29.77;22.00;;;21.70;44.40;;;;;;5071408;28;20629;-66
2023/03/19 12:14:41;;;;;;;21.20;15.87;;;21.90;44.70;;;;;;5072659;28;20200;-67
2023/03/19 12:17:32;;;;;;;21.37;17.50;;;22.00;44.30;;;;;;5072628;28;20197;-67
2023/03/19 12:20:23;;;;;;;26.93;18.07;;;23.00;43.90;;;;;;5072715;28;20687;-67
2023/03/19 12:23:13;;;;;;;24.43;17.23;;;24.00;42.90;;;;;;5072469;28;20205;-66
2023/03/19 12:26:04;;;;;;;25.73;17.70;;;24.50;41.00;;;;;;5072407;28;20278;-66
2023/03/19 12:28:36;;;;;;;22.20;17.13;;;23.90;41.40;;;;;;5072354;28;20217;-70
2023/03/19 12:31:34;;;;;;;24.40;17.40;;;25.00;40.30;;;;;;5067872;28;20201;-70
2023/03/19 12:34:19;;;;;;;27.43;20.33;;;26.70;38.10;;;;;;5052170;28;20264;-67
2023/03/19 12:36:54;;;;;;;31.17;22.93;;;26.90;38.30;;;;;;5052289;28;20205;-71
2023/03/19 12:39:29;;;;;;;27.83;19.53;;;27.80;38.70;;;;;;5052301;28;20660;-71
2023/03/19 12:42:00;;;;;;;24.17;17.97;;;30.10;35.90;;;;;;5052151;28;20202;-70
2023/03/19 12:44:34;;;;;;;30.77;21.57;;;30.20;33.80;;;;;;5052285;28;20663;-70
2023/03/19 12:47:06;;;;;;;21.42;14.25;;;29.40;34.40;;;;;;5052198;28;20197;-70
2023/03/19 12:49:41;;;;;;;24.40;15.82;;;29.70;34.20;;;;;;5052195;28;20255;-70
2023/03/19 12:52:17;;;;;;;27.75;22.40;;;30.30;33.20;;;;;;5052068;28;20200;-69
2023/03/19 12:54:55;;;;;;;27.70;18.42;;;28.40;34.60;;;;;;5051781;28;20205;-66
2023/03/19 12:57:32;;;;;;;20.90;16.60;;;28.20;35.50;;;;;;5050902;28;20212;-67
2023/03/19 13:00:05;;;;;;;23.55;14.60;;;27.40;35.60;;;;;;5051768;28;20204;-67
2023/03/19 13:02:42;;;;;;;23.85;18.30;;;28.00;35.30;;;;;;5051803;28;20193;-67
2023/03/19 13:05:24;;;;;;;27.02;21.52;;;28.00;35.40;;;;;;5051840;28;20201;-67
2023/03/19 13:08:02;;;;;;;28.33;23.55;;;30.00;33.50;;;;;;5051729;28;20209;-67
2023/03/19 13:10:32;;;;;;;23.73;20.23;;;28.60;33.80;;;;;;5051633;28;20204;-68